Time;durP1;ratioP1;P1;durP2;ratioP2;P2;SDS_P1;SDS_P2;PMS_P1;PMS_P2;Temp;Humidity;BMP_temperature;BMP_pressure;BME280_temperature;BME280_humidity;BME280_pressure;Samples;Min_cycle;Max_cycle;Signal;HPM_P1;HPM_P2
2021/06/27 00:01:04;;;;;;;;;;;;;;;;;;;;;
2021/06/27 00:03:36;;;;;;;;;20.33;20.33;;;;;20.50;69.83;101109.84;6326924;22;71641;-92
2021/06/27 00:06:13;;;;;;;;;;;;;;;;;;;;;
2021/06/27 00:08:44;;;;;;;;;20.33;19.67;;;;;20.45;70.29;101123.28;6321883;22;63667;-93
2021/06/27 00:11:35;;;;;;;;;19.67;18.33;;;;;20.46;70.20;101125.06;6342063;22;46809;-92
2021/06/27 00:14:09;;;;;;;;;16.33;16.33;;;;;20.42;70.19;101112.69;6279894;22;45457;-92
2021/06/27 00:17:07;;;;;;;;;;;;;;;;;;;;;
2021/06/27 00:19:35;;;;;;;;;20.67;17.67;;;;;20.29;70.53;101090.66;6280052;22;64187;-93
2021/06/27 00:22:16;;;;;;;;;23.33;20.67;;;;;20.27;70.59;101092.47;6308272;22;47887;-91
2021/06/27 00:24:44;;;;;;;;;21.00;18.33;;;;;20.41;70.41;101123.38;6288074;22;45424;-92
2021/06/27 00:27:22;;;;;;;;;;;;;;;;;;;;;
2021/06/27 00:29:54;;;;;;;;;20.67;18.33;;;;;20.25;70.96;101121.88;6286120;22;64369;-91
2021/06/27 00:32:52;;;;;;;;;;;;;;;;;;;;;
2021/06/27 00:35:21;;;;;;;;;22.33;19.67;;;;;20.28;71.48;101142.28;6280735;22;71900;-91
2021/06/27 00:38:00;;;;;;;;;22.00;19.33;;;;;20.20;71.31;101139.72;6277271;22;45352;-92
2021/06/27 00:40:29;;;;;;;;;24.00;22.00;;;;;20.16;71.56;101129.16;6302751;22;45712;-92
2021/06/27 00:42:57;;;;;;;;;20.67;18.33;;;;;20.29;71.81;101152.03;6301932;22;47249;-92
2021/06/27 00:45:35;;;;;;;;;25.33;21.33;;;;;20.28;71.98;101152.09;6301679;22;45430;-92
2021/06/27 00:48:04;;;;;;;;;20.00;20.00;;;;;20.16;72.11;101130.00;6305045;22;45429;-93
2021/06/27 00:50:45;;;;;;;;;21.33;20.67;;;;;20.10;72.29;101124.78;6279639;22;45577;-93
2021/06/27 00:53:18;;;;;;;;;21.67;21.33;;;;;20.19;72.56;101145.09;6282255;22;46952;-92
2021/06/27 00:55:55;;;;;;;;;22.67;22.00;;;;;20.18;72.67;101151.38;6306616;22;45744;-92
2021/06/27 00:58:37;;;;;;;;;22.33;20.00;;;;;20.19;72.90;101154.00;6293856;22;45231;-90
2021/06/27 01:01:09;;;;;;;;;21.33;20.00;;;;;20.13;72.85;101140.75;6298793;22;44829;-90
2021/06/27 01:03:37;;;;;;;;;21.00;20.67;;;;;20.06;73.10;101123.91;6287867;22;46703;-91
2021/06/27 01:06:06;;;;;;;;;20.00;17.67;;;;;20.14;73.00;101113.13;6322417;22;45354;-91
2021/06/27 01:08:31;;;;;;;;;22.67;20.00;;;;;19.95;72.99;101060.03;6291390;22;45052;-91
2021/06/27 01:11:00;;;;;;;;;17.67;16.33;;;;;20.08;73.08;101089.19;6295753;22;45347;-91
2021/06/27 01:13:25;;;;;;;;;20.67;20.33;;;;;19.99;73.29;101092.88;6291886;22;45285;-92
2021/06/27 01:15:53;;;;;;;;;27.33;21.67;;;;;19.93;73.47;101082.31;6277146;22;45321;-93
2021/06/27 01:18:19;;;;;;;;;23.67;23.67;;;;;20.00;73.36;101102.66;6303727;22;45412;-91
2021/06/27 01:20:48;;;;;;;;;22.00;21.00;;;;;19.99;73.49;101093.78;6280072;22;45330;-91
2021/06/27 01:23:17;;;;;;;;;24.67;20.67;;;;;19.89;73.52;101087.72;6306496;22;47051;-92
2021/06/27 01:25:47;;;;;;;;;28.33;21.33;;;;;19.87;73.55;101085.97;6289830;22;45279;-91
2021/06/27 01:28:13;;;;;;;;;25.67;22.67;;;;;19.85;73.76;101085.13;6325842;22;45324;-92
2021/06/27 01:30:41;;;;;;;;;22.50;21.50;;;;;19.81;73.87;101089.63;6289144;22;45418;-91
2021/06/27 01:33:11;;;;;;;;;28.50;22.75;;;;;19.87;73.63;101088.63;6276920;22;47694;-91
2021/06/27 01:35:37;;;;;;;;;21.33;20.67;;;;;19.92;73.68;101101.91;6275671;22;45287;-91
2021/06/27 01:38:05;;;;;;;;;22.67;20.00;;;;;19.81;73.61;101086.06;6278033;22;45373;-91
2021/06/27 01:40:34;;;;;;;;;27.50;24.75;;;;;19.88;74.38;101101.94;6277688;22;45146;-91
2021/06/27 01:43:12;;;;;;;;;23.00;21.67;;;;;19.77;74.10;101086.13;6277618;22;46174;-90
2021/06/27 01:45:42;;;;;;;;;22.33;21.67;;;;;19.85;74.05;101093.13;6275631;22;45500;-92
2021/06/27 01:48:10;;;;;;;;;28.33;22.33;;;;;19.86;74.17;101097.56;6277817;22;45361;-93
2021/06/27 01:50:38;;;;;;;;;27.00;24.25;;;;;19.79;74.24;101072.75;6275547;22;45324;-92
2021/06/27 01:53:10;;;;;;;;;25.67;23.00;;;;;19.81;74.22;101075.41;6301076;22;47225;-91
2021/06/27 01:55:36;;;;;;;;;27.33;24.33;;;;;19.76;74.01;101052.34;6277053;22;45400;-91
2021/06/27 01:58:05;;;;;;;;;24.00;20.33;;;;;19.74;74.01;101048.81;6277738;22;45421;-91
2021/06/27 02:00:32;;;;;;;;;24.67;19.67;;;;;19.65;74.11;101038.31;6277367;22;45392;-93
2021/06/27 02:03:01;;;;;;;;;26.33;23.67;;;;;19.76;74.15;101065.69;6275314;22;47706;-92
2021/06/27 02:05:28;;;;;;;;;27.33;22.67;;;;;19.65;74.13;101057.00;6277288;22;45417;-92
2021/06/27 02:07:57;;;;;;;;;22.00;22.00;;;;;19.61;74.38;101042.81;6277140;22;45349;-92
2021/06/27 02:11:28;;;;;;;;;;;;;;;;;;;;;
2021/06/27 02:13:57;;;;;;;;;20.33;20.33;;;;;19.67;74.25;101037.38;6060839;23;75159;-93
2021/06/27 02:16:23;;;;;;;;;23.67;23.00;;;;;19.64;74.30;101032.09;6065310;23;45414;-92
2021/06/27 02:18:53;;;;;;;;;25.00;20.33;;;;;19.58;74.59;101028.63;6040124;23;45436;-91
2021/06/27 02:21:23;;;;;;;;;26.67;24.33;;;;;19.68;74.40;101032.91;6064995;23;45559;-92
2021/06/27 02:23:49;;;;;;;;;23.50;21.75;;;;;19.61;74.66;101013.47;6063882;23;47119;-91
2021/06/27 02:26:28;;;;;;;;;;;;;;;;;;;;;
2021/06/27 02:28:54;;;;;;;;;26.67;22.00;;;;;19.60;74.69;101000.16;6062425;23;67440;-95
2021/06/27 02:31:20;;;;;;;;;24.33;20.67;;;;;19.47;74.97;100976.38;6040792;23;45453;-92
2021/06/27 02:33:47;;;;;;;;;21.33;19.67;;;;;19.54;74.96;100982.50;6064860;23;46290;-93
2021/06/27 02:36:15;;;;;;;;;19.33;18.00;;;;;19.59;74.94;100985.06;6040226;23;45719;-90
2021/06/27 02:38:43;;;;;;;;;27.33;21.33;;;;;19.59;74.99;100985.06;6040244;23;45419;-91
2021/06/27 02:41:10;;;;;;;;;24.33;24.33;;;;;19.50;74.91;100965.63;6064766;23;45434;-91
2021/06/27 02:43:37;;;;;;;;;27.50;24.50;;;;;19.42;74.84;100955.09;6039564;23;47275;-92
2021/06/27 02:46:03;;;;;;;;;28.33;25.67;;;;;19.45;74.96;100959.53;6064444;23;45486;-91
2021/06/27 02:48:28;;;;;;;;;23.00;23.00;;;;;19.40;75.16;100940.03;6040505;23;45513;-92
2021/06/27 02:50:54;;;;;;;;;23.67;21.33;;;;;19.43;75.24;100948.88;6212379;22;45474;-94
2021/06/27 02:53:20;;;;;;;;;26.00;23.67;;;;;19.58;75.29;100975.31;6301463;22;47256;-93
2021/06/27 02:55:46;;;;;;;;;23.25;23.25;;;;;19.40;75.38;100934.72;6275526;22;45609;-93
2021/06/27 02:58:12;;;;;;;;;23.67;21.33;;;;;19.47;75.32;100947.03;6301381;22;45430;-92
2021/06/27 03:00:37;;;;;;;;;24.00;22.25;;;;;19.51;75.28;100954.09;6301890;22;45358;-91
2021/06/27 03:03:03;;;;;;;;;25.00;21.67;;;;;19.51;75.31;100956.75;6276810;22;45394;-93
2021/06/27 03:05:28;;;;;;;;;19.33;19.33;;;;;19.45;75.33;100946.19;6275230;22;45378;-91
2021/06/27 03:07:55;;;;;;;;;27.33;24.33;;;;;19.46;75.47;100941.75;6275646;22;45496;-92
2021/06/27 03:10:21;;;;;;;;;26.00;24.00;;;;;19.40;75.38;100927.59;6275854;22;45176;-92
2021/06/27 03:12:49;;;;;;;;;22.67;19.67;;;;;19.54;75.47;100970.00;6275195;22;45454;-95
2021/06/27 03:15:18;;;;;;;;;26.33;24.00;;;;;19.39;75.36;100952.50;6278071;22;45345;-91
2021/06/27 03:17:48;;;;;;;;;17.67;17.67;;;;;19.53;75.62;100973.59;6275359;22;45373;-91
2021/06/27 03:20:16;;;;;;;;;21.00;21.00;;;;;19.53;75.49;100970.94;6275231;22;45436;-90
2021/06/27 03:22:51;;;;;;;;;;;;;;;;;;;;;
2021/06/27 03:25:17;;;;;;;;;19.67;19.67;;;;;19.39;75.20;100943.63;6273649;22;72732;-91
2021/06/27 03:27:46;;;;;;;;;19.67;19.33;;;;;19.33;75.19;100937.47;6274876;22;45197;-92
2021/06/27 03:30:12;;;;;;;;;23.00;21.33;;;;;19.33;75.23;100940.13;6276784;22;45378;-91
2021/06/27 03:32:40;;;;;;;;;26.67;23.00;;;;;19.36;75.13;100938.31;6274664;22;47390;-91
2021/06/27 03:35:09;;;;;;;;;21.00;21.00;;;;;19.45;75.11;100956.84;6274142;22;45861;-90
2021/06/27 03:37:51;;;;;;;;;26.67;25.33;;;;;19.44;75.39;100947.97;6274443;22;45133;-90
2021/06/27 03:40:18;;;;;;;;;24.67;22.33;;;;;19.43;75.58;100940.00;6274684;22;45307;-92
2021/06/27 03:42:46;;;;;;;;;26.00;22.33;;;;;19.46;75.61;100937.28;6276382;22;45299;-92
2021/06/27 03:45:20;;;;;;;;;23.33;21.67;;;;;19.38;75.42;100932.06;6274787;22;45221;-90
2021/06/27 03:47:46;;;;;;;;;28.00;21.67;;;;;19.42;75.32;100943.56;6277043;22;45310;-92
2021/06/27 03:50:19;;;;;;;;;28.00;21.00;;;;;19.37;75.50;100954.31;6275057;22;45486;-92
2021/06/27 03:52:49;;;;;;;;;24.67;22.33;;;;;19.42;75.23;100970.22;6276325;22;45247;-92
2021/06/27 03:55:18;;;;;;;;;25.00;22.67;;;;;19.31;75.26;100946.41;6274537;22;45346;-91
2021/06/27 03:57:47;;;;;;;;;23.67;21.67;;;;;19.34;74.82;100957.03;6274685;22;45288;-93
2021/06/27 04:00:15;;;;;;;;;29.00;23.67;;;;;19.33;75.64;100961.47;6274924;22;45450;-91
2021/06/27 04:02:40;;;;;;;;;26.67;23.00;;;;;19.43;75.17;100966.66;6274540;22;47966;-92
2021/06/27 04:05:08;;;;;;;;;21.67;19.67;;;;;19.32;75.09;100949.06;6274992;22;45426;-93
2021/06/27 04:07:44;;;;;;;;;26.67;22.33;;;;;19.31;75.02;100941.94;6274698;22;45223;-91
2021/06/27 04:10:18;;;;;;;;;24.33;24.33;;;;;19.26;75.23;100933.16;6275044;22;45185;-92
2021/06/27 04:12:46;;;;;;;;;20.00;20.00;;;;;19.41;75.47;100966.69;6300417;22;47035;-92
2021/06/27 04:15:15;;;;;;;;;27.67;26.33;;;;;19.26;75.49;100949.16;6300465;22;45515;-92
2021/06/27 04:17:42;;;;;;;;;21.67;20.67;;;;;19.24;75.44;100955.41;6277060;22;45394;-93
2021/06/27 04:20:09;;;;;;;;;20.33;20.33;;;;;19.23;75.73;100943.84;6278862;22;45254;-91
2021/06/27 04:22:37;;;;;;;;;22.00;20.00;;;;;19.37;75.65;100967.66;6277785;22;48197;-91
2021/06/27 04:25:05;;;;;;;;;24.33;23.33;;;;;19.27;75.56;100953.56;6278478;22;45373;-91
2021/06/27 04:27:30;;;;;;;;;20.00;19.75;;;;;19.44;75.78;100965.75;6276276;22;45309;-90
2021/06/27 04:30:03;;;;;;;;;22.00;21.00;;;;;19.33;75.32;100956.13;6274886;22;45318;-91
2021/06/27 04:32:31;;;;;;;;;20.33;20.33;;;;;19.39;75.67;100957.84;6273034;22;47767;-93
2021/06/27 04:34:57;;;;;;;;;24.67;19.67;;;;;19.39;75.34;100960.50;6274497;22;45342;-92
2021/06/27 04:37:30;;;;;;;;;24.33;23.00;;;;;19.42;75.60;100971.09;6276586;22;45452;-91
2021/06/27 04:39:55;;;;;;;;;20.33;19.33;;;;;19.38;75.55;100961.41;6278034;22;45401;-93
2021/06/27 04:42:24;;;;;;;;;20.67;18.67;;;;;19.39;75.42;100959.63;6301035;22;47511;-91
2021/06/27 04:44:54;;;;;;;;;20.00;19.00;;;;;19.29;75.72;100938.44;6276341;22;45098;-92
2021/06/27 04:47:20;;;;;;;;;23.67;23.00;;;;;19.38;75.44;100952.50;6302089;22;45378;-92
2021/06/27 04:49:45;;;;;;;;;25.00;21.67;;;;;19.41;75.42;100963.13;6275089;22;45489;-92
2021/06/27 04:52:11;;;;;;;;;23.00;21.00;;;;;19.38;75.42;100957.84;6301239;22;48019;-91
2021/06/27 04:54:37;;;;;;;;;21.00;19.67;;;;;19.36;75.55;100963.22;6301248;22;45552;-92
2021/06/27 04:57:17;;;;;;;;;20.33;18.00;;;;;19.38;75.83;100960.50;6276091;22;45381;-91
2021/06/27 04:59:42;;;;;;;;;19.67;18.00;;;;;19.39;75.49;100964.94;6301767;22;45506;-92
2021/06/27 05:02:08;;;;;;;;;24.00;21.00;;;;;19.24;75.69;100940.31;6277581;22;46071;-92
2021/06/27 05:04:35;;;;;;;;;26.00;22.33;;;;;19.42;75.73;100963.09;6301519;22;45358;-93
2021/06/27 05:07:00;;;;;;;;;23.25;20.75;;;;;19.29;75.26;100942.91;6277843;22;45362;-90
2021/06/27 05:09:26;;;;;;;;;24.67;22.00;;;;;19.28;75.37;100944.69;6277995;22;45400;-91
2021/06/27 05:11:56;;;;;;;;;27.33;22.00;;;;;19.39;75.51;100964.94;6275005;22;48304;-92
2021/06/27 05:14:23;;;;;;;;;25.00;24.25;;;;;19.37;75.46;100956.97;6275870;22;45208;-91
2021/06/27 05:16:55;;;;;;;;;29.33;23.33;;;;;19.38;75.48;100953.41;6275737;22;45314;-90
2021/06/27 05:19:21;;;;;;;;;24.75;20.25;;;;;19.29;75.43;100934.91;6275515;22;45117;-94
2021/06/27 05:22:01;;;;;;;;;;;;;;;;;;;;;
2021/06/27 05:24:27;;;;;;;;;28.00;24.33;;;;;19.34;75.49;100941.03;6275835;22;71250;-92
2021/06/27 05:26:55;;;;;;;;;24.00;22.33;;;;;19.36;75.64;100938.31;6275661;22;45389;-92
2021/06/27 05:29:20;;;;;;;;;26.50;23.00;;;;;19.44;75.50;100955.06;6277983;22;45152;-93
2021/06/27 05:31:48;;;;;;;;;25.33;23.67;;;;;19.36;75.28;100943.66;6275512;22;47315;-91
2021/06/27 05:34:34;;;;;;;;;25.33;22.33;;;;;19.42;75.35;100964.88;6277638;22;45392;-92
2021/06/27 05:37:02;;;;;;;;;26.67;23.67;;;;;19.38;75.36;100947.19;6275112;22;45493;-92
2021/06/27 05:39:30;;;;;;;;;26.33;21.33;;;;;19.43;75.44;100958.66;6284883;22;45164;-92
2021/06/27 05:42:05;;;;;;;;;;;;;;;;;;;;;
2021/06/27 05:44:31;;;;;;;;;22.67;20.00;;;;;19.44;75.85;100952.41;6275384;22;72053;-94
2021/06/27 05:46:57;;;;;;;;;24.33;23.33;;;;;19.44;75.60;100958.63;6277679;22;45332;-92
2021/06/27 05:49:25;;;;;;;;;28.33;20.67;;;;;19.50;75.54;100962.97;6275402;22;45395;-91
2021/06/27 05:51:53;;;;;;;;;23.00;21.00;;;;;19.42;75.64;100943.56;6275042;22;47967;-93
2021/06/27 05:54:18;;;;;;;;;27.67;23.33;;;;;19.38;75.72;100941.84;6301713;22;45356;-92
2021/06/27 05:56:46;;;;;;;;;22.00;22.00;;;;;19.43;75.34;100948.88;6275738;22;45304;-92
2021/06/27 05:59:11;;;;;;;;;22.67;22.00;;;;;19.51;75.49;100959.41;6277441;22;45227;-92
2021/06/27 06:01:37;;;;;;;;;20.67;19.33;;;;;19.42;75.53;100939.13;6275150;22;46931;-92
2021/06/27 06:04:03;;;;;;;;;26.00;19.00;;;;;19.44;75.60;100939.09;6277746;22;45324;-92
2021/06/27 06:06:41;;;;;;;;;;;;;;;;;;;;;
2021/06/27 06:09:06;;;;;;;;;23.00;21.67;;;;;19.43;75.83;100938.22;6275493;22;63402;-93
2021/06/27 06:11:46;;;;;;;;;21.00;20.67;;;;;19.47;75.76;100935.50;6275799;22;48209;-93
2021/06/27 06:14:11;;;;;;;;;27.00;21.67;;;;;19.47;75.45;100946.16;6275538;22;45222;-92
2021/06/27 06:16:37;;;;;;;;;21.33;20.00;;;;;19.53;75.67;100949.59;6301631;22;45473;-92
2021/06/27 06:19:04;;;;;;;;;22.00;20.33;;;;;19.65;75.47;100966.31;6301966;22;45343;-93
2021/06/27 06:21:30;;;;;;;;;29.67;22.67;;;;;19.60;75.38;100957.50;6302460;22;47063;-93
2021/06/27 06:23:55;;;;;;;;;21.33;19.00;;;;;19.59;75.58;100950.41;6276891;22;45377;-91
2021/06/27 06:26:36;;;;;;;;;;;;;;;;;;;;;
2021/06/27 06:29:05;;;;;;;;;24.00;22.00;;;;;19.61;75.36;100943.25;6301248;22;63760;-92
2021/06/27 06:31:41;;;;;;;;;;;;;;;;;;;;;
2021/06/27 06:34:07;;;;;;;;;30.75;25.75;;;;;19.65;75.64;100947.66;6297573;22;72074;-92
2021/06/27 06:36:48;;;;;;;;;;;;;;;;;;;;;
2021/06/27 06:39:14;;;;;;;;;21.67;20.00;;;;;19.65;74.79;100948.50;6276672;22;64637;-90
2021/06/27 06:41:42;;;;;;;;;21.67;18.00;;;;;19.64;75.21;100943.22;6275719;22;46401;-93
2021/06/27 06:44:07;;;;;;;;;24.33;22.33;;;;;19.78;75.00;100967.84;6275395;22;45598;-91
2021/06/27 06:46:36;;;;;;;;;20.00;18.00;;;;;19.63;74.85;100939.66;6275369;22;45371;-93
2021/06/27 06:49:01;;;;;;;;;21.00;17.67;;;;;19.78;74.20;100967.84;6301688;22;45290;-91
2021/06/27 06:55:01;;;;;;;;;21.33;18.00;;;;;19.73;73.52;100968.84;6243351;22;45386;-92
2021/06/27 06:57:31;;;;;;;;;23.00;20.00;;;;;19.73;73.40;100966.19;6217977;22;45351;-91
2021/06/27 06:59:59;;;;;;;;;20.67;18.33;;;;;19.74;73.25;100965.25;6242853;22;45398;-91
2021/06/27 07:02:24;;;;;;;;;18.00;17.33;;;;;19.78;73.47;100959.84;6220514;22;46814;-90
2021/06/27 07:04:57;;;;;;;;;21.33;17.00;;;;;19.87;73.36;100973.94;6256868;22;45304;-87
2021/06/27 07:07:22;;;;;;;;;19.67;18.67;;;;;19.84;73.26;100964.19;6254021;22;45242;-86
2021/06/27 07:09:48;;;;;;;;;22.00;20.67;;;;;19.86;72.83;100962.38;6242730;22;45320;-89
2021/06/27 07:12:13;;;;;;;;;24.33;22.67;;;;;19.93;72.48;100973.81;6241309;22;45876;-88
2021/06/27 07:14:39;;;;;;;;;21.67;18.33;;;;;19.92;73.08;100965.84;6242546;22;45357;-86
2021/06/27 07:17:04;;;;;;;;;18.67;18.67;;;;;19.94;73.06;100967.59;6216563;22;45557;-88
2021/06/27 07:19:30;;;;;;;;;22.00;18.67;;;;;19.96;72.62;100963.09;6242313;22;45375;-87
2021/06/27 07:21:55;;;;;;;;;20.33;17.33;;;;;19.97;72.58;100967.53;6242700;22;46400;-86
2021/06/27 07:24:20;;;;;;;;;18.67;17.67;;;;;20.01;72.09;100971.88;6242660;22;45432;-85
2021/06/27 07:26:47;;;;;;;;;18.67;17.00;;;;;20.06;72.07;100976.25;6242555;22;45625;-89
2021/06/27 07:29:12;;;;;;;;;18.33;16.00;;;;;20.08;71.95;100974.44;6243187;22;45414;-87
2021/06/27 07:31:38;;;;;;;;;18.33;17.67;;;;;20.05;71.73;100970.03;6256758;22;45316;-90
2021/06/27 07:34:03;;;;;;;;;18.33;18.33;;;;;20.11;71.67;100977.09;6275974;22;45332;-86
2021/06/27 07:36:29;;;;;;;;;16.00;16.00;;;;;20.06;71.34;100963.81;6274867;22;45374;-86
2021/06/27 07:38:54;;;;;;;;;18.67;17.33;;;;;20.14;71.23;100974.38;6275987;22;45385;-88
2021/06/27 07:41:20;;;;;;;;;17.33;16.33;;;;;20.12;71.16;100966.38;6275311;22;46517;-87
2021/06/27 07:43:48;;;;;;;;;18.67;15.67;;;;;20.15;71.21;100968.13;6275089;22;45369;-88
2021/06/27 07:46:13;;;;;;;;;20.67;17.00;;;;;20.18;71.38;100954.72;6275730;22;45182;-86
2021/06/27 07:48:39;;;;;;;;;20.33;19.33;;;;;20.19;71.13;100952.94;6275795;22;45284;-87
2021/06/27 07:51:04;;;;;;;;;20.00;18.00;;;;;20.19;70.86;100956.47;6276228;22;45278;-86
2021/06/27 07:53:30;;;;;;;;;18.67;16.67;;;;;20.23;70.80;100955.53;6275955;22;45307;-87
2021/06/27 07:55:55;;;;;;;;;18.33;16.00;;;;;20.22;70.39;100942.22;6275874;22;45279;-87
2021/06/27 07:58:21;;;;;;;;;15.33;15.33;;;;;20.27;70.82;100942.09;6276224;22;45240;-85
2021/06/27 08:00:46;;;;;;;;;20.00;18.33;;;;;20.22;71.10;100929.72;6283291;22;45258;-89
2021/06/27 08:03:12;;;;;;;;;16.33;16.00;;;;;20.26;70.25;100935.91;6281209;22;45530;-91
2021/06/27 08:05:37;;;;;;;;;21.33;18.67;;;;;20.24;70.55;100927.03;6285106;22;45374;-89
2021/06/27 08:08:05;;;;;;;;;19.33;17.33;;;;;20.32;70.30;100934.88;6283749;22;45365;-89
2021/06/27 08:10:30;;;;;;;;;19.67;19.00;;;;;20.23;70.12;100914.59;6284479;22;46599;-90
2021/06/27 08:12:56;;;;;;;;;17.67;15.00;;;;;20.29;70.38;100919.81;6284203;22;45353;-90
2021/06/27 08:15:39;;;;;;;;;20.33;18.33;;;;;20.34;70.49;100927.72;6285470;22;45330;-90
2021/06/27 08:18:06;;;;;;;;;19.33;17.67;;;;;20.34;70.59;100914.38;6291482;22;45394;-89
2021/06/27 08:20:38;;;;;;;;;21.00;19.00;;;;;20.39;70.87;100919.63;6291960;22;46487;-89
2021/06/27 08:23:04;;;;;;;;;23.67;18.67;;;;;20.52;70.53;100930.94;6290314;22;45389;-89
2021/06/27 08:25:29;;;;;;;;;25.00;20.33;;;;;20.54;71.17;100934.44;6292168;22;45701;-90
2021/06/27 08:27:55;;;;;;;;;15.67;15.67;;;;;20.50;70.54;100922.03;6297669;22;45419;-90
2021/06/27 08:30:23;;;;;;;;;20.33;18.67;;;;;20.59;70.36;100938.78;6296700;22;46893;-88
2021/06/27 08:32:51;;;;;;;;;20.67;17.33;;;;;20.56;70.67;100932.63;6294817;22;45259;-89
2021/06/27 08:35:20;;;;;;;;;18.00;17.00;;;;;20.58;69.91;100936.16;6295121;22;44700;-88
2021/06/27 08:37:48;;;;;;;;;19.67;19.67;;;;;20.66;69.49;100944.88;6295246;22;45335;-88
2021/06/27 08:40:19;;;;;;;;;23.00;19.33;;;;;20.55;70.24;100930.84;6296022;22;46085;-88
2021/06/27 08:42:48;;;;;;;;;19.67;18.33;;;;;20.61;69.71;100944.06;6294037;22;44688;-91
2021/06/27 08:45:16;;;;;;;;;19.00;17.33;;;;;20.69;69.44;100952.81;6295467;22;44753;-91
2021/06/27 08:47:43;;;;;;;;;18.00;18.00;;;;;20.64;69.80;100940.47;6290814;22;45089;-89
2021/06/27 08:50:11;;;;;;;;;22.00;19.00;;;;;20.73;69.94;100947.41;6291409;22;45033;-90
2021/06/27 08:52:40;;;;;;;;;17.33;17.33;;;;;20.74;69.45;100949.16;6286538;22;45328;-89
2021/06/27 08:55:07;;;;;;;;;16.33;15.33;;;;;20.81;69.34;100964.16;6292812;22;45252;-90
2021/06/27 08:57:35;;;;;;;;;18.67;16.67;;;;;20.71;69.67;100945.63;6299084;22;45617;-90
2021/06/27 09:00:01;;;;;;;;;19.33;18.00;;;;;20.81;69.63;100959.66;6299621;22;47214;-96
2021/06/27 09:02:29;;;;;;;;;18.67;16.33;;;;;20.74;69.02;100950.03;6296586;22;45276;-92
2021/06/27 09:04:56;;;;;;;;;17.00;17.00;;;;;20.81;69.33;100954.31;6300585;22;44587;-90
2021/06/27 09:07:27;;;;;;;;;22.67;20.00;;;;;20.86;69.11;100975.59;6300602;22;44674;-90
2021/06/27 09:10:16;;;;;;;;;24.67;19.67;;;;;20.74;69.08;100947.38;6300977;22;46050;-89
2021/06/27 09:13:05;;;;;;;;;22.67;16.67;;;;;20.87;69.34;100980.03;6212459;22;45109;-92
2021/06/27 09:15:50;;;;;;;;;22.00;19.33;;;;;20.75;69.43;100954.44;6117025;23;44828;-90
2021/06/27 09:18:16;;;;;;;;;20.00;18.67;;;;;20.87;69.76;100977.38;6092041;23;45438;-91
2021/06/27 09:20:48;;;;;;;;;22.33;18.67;;;;;20.88;69.43;100970.22;6089017;23;47038;-93
2021/06/27 09:23:17;;;;;;;;;20.67;17.33;;;;;20.82;69.88;100968.56;6109067;23;45005;-92
2021/06/27 09:25:45;;;;;;;;;18.33;18.33;;;;;20.74;69.64;100963.41;6106391;23;45402;-90
2021/06/27 09:28:12;;;;;;;;;23.67;20.00;;;;;20.87;69.68;100980.03;6107326;23;45366;-90
2021/06/27 09:30:50;;;;;;;;;23.00;19.67;;;;;20.81;69.90;100980.19;6104808;23;46142;-91
2021/06/27 09:33:19;;;;;;;;;21.67;19.00;;;;;20.81;70.14;100972.16;6099432;23;45413;-93
2021/06/27 09:35:46;;;;;;;;;25.00;22.00;;;;;20.74;70.34;100962.50;6104559;23;45301;-91
2021/06/27 09:38:21;;;;;;;;;21.33;19.00;;;;;20.80;70.52;100973.94;6090373;23;45265;-91
2021/06/27 09:40:53;;;;;;;;;20.67;20.67;;;;;20.79;70.58;100968.66;6239424;22;45683;-91
2021/06/27 09:43:21;;;;;;;;;19.33;18.33;;;;;20.80;71.08;100973.94;6261455;22;45367;-89
2021/06/27 09:45:49;;;;;;;;;18.67;17.67;;;;;20.91;71.04;100983.50;6260731;22;45441;-92
2021/06/27 09:48:15;;;;;;;;;21.00;19.33;;;;;20.85;70.41;100973.84;6262089;22;45074;-91
2021/06/27 09:50:41;;;;;;;;;21.33;21.33;;;;;20.90;70.42;100981.75;6265815;22;45350;-91
2021/06/27 09:53:41;;;;;;;;;20.33;17.67;;;;;20.89;70.79;100986.22;6270828;22;44771;-88
2021/06/27 09:56:08;;;;;;;;;21.33;20.33;;;;;20.99;71.14;100999.41;6272209;22;44673;-91
2021/06/27 09:58:34;;;;;;;;;22.33;19.00;;;;;20.95;71.02;100993.22;6272476;22;44789;-90
2021/06/27 10:01:00;;;;;;;;;22.00;20.67;;;;;20.99;70.94;101007.41;6269986;22;46258;-94
2021/06/27 10:03:51;;;;;;;;;20.67;19.33;;;;;21.04;70.64;101018.91;6260612;22;45865;-93
2021/06/27 10:06:34;;;;;;;;;24.33;21.33;;;;;20.97;70.94;101002.09;6264214;22;45381;-91
2021/06/27 10:09:15;;;;;;;;;19.00;19.00;;;;;20.97;70.76;101001.19;6261992;22;45382;-95
2021/06/27 10:12:02;;;;;;;;;21.67;20.67;;;;;20.96;70.78;101004.81;6263683;22;47928;-91
2021/06/27 10:14:59;;;;;;;;;32.75;28.25;;;;;21.08;71.05;101025.06;6268744;22;44771;-89
2021/06/27 10:17:27;;;;;;;;;28.33;26.00;;;;;20.98;70.62;101003.00;6203952;23;44801;-93
2021/06/27 10:19:54;;;;;;;;;24.33;21.00;;;;;21.11;70.08;101033.88;6151368;23;45345;-94
2021/06/27 10:22:25;;;;;;;;;22.67;22.00;;;;;20.96;69.90;101002.13;6183196;22;45316;-91
2021/06/27 10:24:58;;;;;;;;;26.33;25.00;;;;;21.00;69.62;101012.75;6208957;23;44734;-92
2021/06/27 10:27:55;;;;;;;;;24.33;20.33;;;;;21.00;70.19;101007.41;6180514;23;45480;-92
2021/06/27 10:31:06;;;;;;;;;21.33;19.67;;;;;21.05;70.34;101026.00;6180113;23;44938;-89
2021/06/27 10:36:14;;;;;;;;;17.67;17.00;;;;;21.05;69.90;101017.97;6223505;22;45151;-94
2021/06/27 10:41:49;;;;;;;;;;;;;;;;;;;;;
2021/06/27 10:44:17;;;;;;;;;18.67;18.67;;;;;21.10;70.18;101036.59;6245772;22;76419;-92
2021/06/27 10:46:49;;;;;;;;;18.00;18.00;;;;;21.10;69.53;101039.25;6222967;22;45336;-91
2021/06/27 10:49:33;;;;;;;;;19.33;16.33;;;;;21.18;69.29;101053.34;6223563;22;45320;-94
2021/06/27 10:52:06;;;;;;;;;18.00;18.00;;;;;21.17;69.35;101048.91;6219886;22;45363;-86
2021/06/27 10:54:32;;;;;;;;;19.00;18.33;;;;;21.15;68.79;101054.28;6245295;22;45173;-89
2021/06/27 10:57:16;;;;;;;;;21.33;19.00;;;;;21.12;69.12;101050.81;6245460;22;45279;-86
2021/06/27 10:59:46;;;;;;;;;19.67;19.67;;;;;21.14;69.37;101055.22;6244773;22;45360;-84
2021/06/27 11:02:20;;;;;;;;;18.00;17.00;;;;;21.09;68.96;101051.75;6244715;22;45292;-84
2021/06/27 11:04:47;;;;;;;;;21.67;21.33;;;;;21.08;69.20;101052.66;6244870;22;46576;-85
2021/06/27 11:07:31;;;;;;;;;21.00;20.67;;;;;21.12;69.74;101053.47;6244985;22;45268;-84
2021/06/27 11:10:18;;;;;;;;;20.00;18.33;;;;;21.11;69.85;101049.91;6244870;22;45346;-86
2021/06/27 11:13:16;;;;;;;;;27.67;18.67;;;;;21.13;69.44;101050.75;6245378;22;45244;-85
2021/06/27 11:15:44;;;;;;;;;20.33;18.33;;;;;21.12;69.63;101057.03;6243790;22;46385;-85
2021/06/27 11:18:11;;;;;;;;;22.00;18.00;;;;;21.13;70.50;101053.44;6244555;22;45327;-84
2021/06/27 11:20:48;;;;;;;;;22.67;20.00;;;;;21.14;70.87;101060.56;6244230;22;45252;-84
2021/06/27 11:23:14;;;;;;;;;16.33;15.00;;;;;21.15;69.66;101056.09;6244990;22;45162;-84
2021/06/27 11:25:47;;;;;;;;;17.00;12.67;;;;;21.14;69.37;101057.88;6244500;22;46291;-88
2021/06/27 11:30:51;;;;;;;;;15.33;13.33;;;;;21.16;69.90;101053.38;6252148;22;45451;-85
2021/06/27 11:33:21;;;;;;;;;12.00;12.00;;;;;21.17;68.51;101059.63;6255470;22;45165;-83
2021/06/27 11:35:50;;;;;;;;;15.33;12.67;;;;;21.18;69.38;101069.38;6251791;22;45667;-84
2021/06/27 11:38:39;;;;;;;;;12.00;12.00;;;;;21.21;69.59;101063.09;6244676;22;45415;-85
2021/06/27 11:41:11;;;;;;;;;16.00;14.00;;;;;21.16;69.87;101049.81;6244109;22;45301;-84
2021/06/27 11:44:01;;;;;;;;;15.67;13.33;;;;;21.26;70.05;101063.84;6244196;22;45158;-84
2021/06/27 11:46:35;;;;;;;;;15.00;12.67;;;;;21.31;70.09;101055.72;6243794;22;45482;-84
2021/06/27 11:49:07;;;;;;;;;15.00;13.67;;;;;21.32;69.03;101058.38;6244560;22;45264;-86
2021/06/27 11:51:33;;;;;;;;;14.00;14.00;;;;;21.32;69.67;101061.03;6244704;22;45296;-85
2021/06/27 11:53:59;;;;;;;;;12.33;12.00;;;;;21.26;69.10;101047.81;6245222;22;45402;-86
2021/06/27 11:56:24;;;;;;;;;12.67;12.67;;;;;21.29;69.05;101053.09;6244941;22;45958;-86